Time;durP1;ratioP1;P1;durP2;ratioP2;P2;SDS_P1;SDS_P2;PMS_P1;PMS_P2;Temp;Humidity;BMP_temperature;BMP_pressure;BME280_temperature;BME280_humidity;BME280_pressure;Samples;Min_cycle;Max_cycle;Signal;HPM_P1;HPM_P2
2023/06/20 00:00:25;;;;;;;3.40;3.10;;;22.90;93.20;;;;;;5051365;28;20174;-69
2023/06/20 00:02:50;;;;;;;4.67;3.30;;;22.80;99.20;;;;;;5051028;28;20290;-72
2023/06/20 00:05:16;;;;;;;4.07;3.00;;;22.80;99.90;;;;;;5051153;28;20488;-68
2023/06/20 00:07:41;;;;;;;5.87;4.53;;;22.80;99.90;;;;;;5051100;28;20167;-69
2023/06/20 00:10:08;;;;;;;3.40;3.10;;;22.70;99.90;;;;;;5051123;28;20167;-71
2023/06/20 00:12:34;;;;;;;3.80;3.20;;;22.70;99.90;;;;;;5051409;28;20194;-71
2023/06/20 00:14:59;;;;;;;3.70;3.40;;;22.70;99.90;;;;;;5053931;28;20907;-71
2023/06/20 00:17:25;;;;;;;4.97;3.93;;;22.60;99.90;;;;;;5037248;28;20199;-71
2023/06/20 00:19:51;;;;;;;4.60;3.37;;;22.60;99.90;;;;;;5055045;28;20237;-70
2023/06/20 00:22:17;;;;;;;3.57;2.93;;;22.50;99.90;;;;;;5055145;28;20178;-71
2023/06/20 00:24:42;;;;;;;4.50;4.10;;;22.40;99.90;;;;;;5055166;28;20400;-71
2023/06/20 00:27:08;;;;;;;3.37;3.07;;;22.40;99.90;;;;;;5055181;28;20163;-71
2023/06/20 00:29:34;;;;;;;6.57;3.50;;;22.40;99.90;;;;;;5055076;28;20170;-71
2023/06/20 00:31:59;;;;;;;4.23;3.43;;;22.40;99.90;;;;;;5054771;28;20186;-70
2023/06/20 00:34:25;;;;;;;4.70;3.20;;;22.40;99.90;;;;;;5055120;28;20170;-72
2023/06/20 00:36:50;;;;;;;4.37;3.77;;;22.40;99.90;;;;;;5037436;28;20511;-69
2023/06/20 00:39:16;;;;;;;3.50;3.20;;;22.40;99.90;;;;;;5054933;28;20191;-69
2023/06/20 00:41:42;;;;;;;4.10;3.30;;;22.30;99.90;;;;;;5054552;28;20779;-70
2023/06/20 00:44:07;;;;;;;4.70;3.33;;;22.10;99.90;;;;;;5054231;28;20215;-69
2023/06/20 00:46:36;;;;;;;4.20;3.77;;;22.00;99.90;;;;;;5054857;28;20834;-71
2023/06/20 00:49:04;;;;;;;4.63;3.17;;;22.00;99.90;;;;;;5054658;28;20569;-70
2023/06/20 00:51:30;;;;;;;3.80;3.40;;;22.00;99.90;;;;;;5054447;28;20425;-70
2023/06/20 00:53:56;;;;;;;3.83;3.43;;;22.00;99.90;;;;;;5054781;28;20409;-71
2023/06/20 00:56:25;;;;;;;3.70;3.20;;;22.00;99.90;;;;;;5054604;28;20263;-71
2023/06/20 00:58:50;;;;;;;4.03;3.20;;;21.90;99.90;;;;;;5054532;28;20503;-70
2023/06/20 01:01:19;;;;;;;6.10;3.40;;;21.90;99.90;;;;;;5054165;28;20422;-69
2023/06/20 01:03:48;;;;;;;5.20;3.93;;;21.80;99.90;;;;;;5054469;28;20224;-70
2023/06/20 01:06:41;;;;;;;4.77;3.80;;;21.80;99.90;;;;;;5054459;28;20484;-70
2023/06/20 01:09:07;;;;;;;5.93;3.80;;;21.70;99.90;;;;;;5054440;28;20390;-69
2023/06/20 01:12:08;;;;;;;3.90;3.17;;;21.70;99.90;;;;;;5053983;28;20459;-70
2023/06/20 01:14:42;;;;;;;4.30;3.87;;;21.60;99.90;;;;;;5054343;28;20177;-72
2023/06/20 01:17:31;;;;;;;4.23;3.83;;;21.60;99.90;;;;;;5054267;28;20401;-69
2023/06/20 01:20:04;;;;;;;4.93;3.43;;;21.50;99.90;;;;;;5053967;28;20405;-71
2023/06/20 01:22:51;;;;;;;5.87;3.30;;;21.50;99.90;;;;;;5036094;28;20459;-71
2023/06/20 01:25:26;;;;;;;7.67;3.70;;;21.40;99.90;;;;;;5054127;28;20761;-70
2023/06/20 01:28:12;;;;;;;4.80;3.70;;;21.40;99.90;;;;;;5054011;28;20408;-70
2023/06/20 01:30:48;;;;;;;4.37;3.97;;;21.40;99.90;;;;;;5035585;28;20519;-71
2023/06/20 01:33:24;;;;;;;5.03;3.80;;;21.30;99.90;;;;;;5053995;28;20397;-71
2023/06/20 01:35:50;;;;;;;4.30;3.67;;;21.30;99.90;;;;;;5053985;28;20404;-72
2023/06/20 01:38:18;;;;;;;4.80;4.07;;;21.30;99.90;;;;;;5053796;28;20798;-71
2023/06/20 01:40:48;;;;;;;5.00;3.70;;;21.30;99.90;;;;;;5035570;28;20174;-70
2023/06/20 01:43:15;;;;;;;5.67;4.50;;;21.40;99.90;;;;;;5053824;28;20401;-68
2023/06/20 01:45:44;;;;;;;6.10;4.50;;;21.40;99.90;;;;;;5053816;28;20433;-69
2023/06/20 01:48:12;;;;;;;5.00;3.87;;;21.40;99.90;;;;;;5053701;28;20394;-70
2023/06/20 01:50:39;;;;;;;3.53;3.20;;;21.30;99.90;;;;;;5053337;28;20751;-71
2023/06/20 01:53:06;;;;;;;4.17;3.70;;;21.40;99.90;;;;;;5053640;28;20406;-69
2023/06/20 01:55:33;;;;;;;4.87;3.77;;;21.40;99.90;;;;;;5053505;28;20903;-70
2023/06/20 01:58:00;;;;;;;10.27;3.40;;;21.30;99.90;;;;;;5053448;28;20963;-69
2023/06/20 02:00:27;;;;;;;3.13;2.83;;;21.30;99.90;;;;;;5053174;28;20489;-69
2023/06/20 02:02:56;;;;;;;4.60;4.03;;;21.30;99.90;;;;;;5053332;28;20433;-69
2023/06/20 02:05:23;;;;;;;5.70;3.70;;;21.30;99.90;;;;;;5053287;28;20985;-71
2023/06/20 02:07:50;;;;;;;5.10;3.80;;;21.30;99.90;;;;;;5053366;28;20412;-71
2023/06/20 02:10:16;;;;;;;4.13;3.73;;;21.40;99.90;;;;;;5052878;28;20404;-71
2023/06/20 02:12:44;;;;;;;5.33;4.20;;;21.40;99.90;;;;;;5053152;28;20434;-70
2023/06/20 02:15:10;;;;;;;4.87;3.57;;;21.40;99.90;;;;;;5053182;28;20398;-71
2023/06/20 02:17:38;;;;;;;4.90;4.00;;;21.40;99.90;;;;;;5052999;28;20445;-68
2023/06/20 02:20:05;;;;;;;4.03;3.63;;;21.30;99.90;;;;;;5052690;28;20408;-70
2023/06/20 02:22:32;;;;;;;6.37;3.90;;;21.30;99.90;;;;;;5035149;28;20422;-69
2023/06/20 02:25:07;;;;;;;3.60;3.30;;;21.20;99.90;;;;;;5052712;28;20448;-69
2023/06/20 02:27:34;;;;;;;4.60;3.90;;;21.30;99.90;;;;;;5035019;28;20417;-70
2023/06/20 02:30:03;;;;;;;4.20;3.63;;;21.30;99.90;;;;;;5034731;28;20418;-70
2023/06/20 02:32:29;;;;;;;4.07;3.67;;;21.20;99.90;;;;;;5052740;28;20754;-69
2023/06/20 02:34:55;;;;;;;5.87;3.63;;;21.20;99.90;;;;;;5052739;28;20417;-70
2023/06/20 02:37:24;;;;;;;4.53;3.60;;;21.20;99.90;;;;;;5052105;28;20496;-71
2023/06/20 02:39:50;;;;;;;4.03;3.67;;;21.20;99.90;;;;;;5052437;28;20409;-70
2023/06/20 02:42:17;;;;;;;5.67;3.47;;;21.20;99.90;;;;;;5052479;28;20436;-70
2023/06/20 02:44:43;;;;;;;4.03;3.70;;;21.20;99.90;;;;;;5052498;28;20167;-71
2023/06/20 02:47:33;;;;;;;5.20;4.27;;;21.20;99.90;;;;;;5052677;28;20484;-71
2023/06/20 02:50:12;;;;;;;5.33;3.27;;;21.20;99.90;;;;;;5052253;28;20540;-71
2023/06/20 02:52:48;;;;;;;4.70;3.40;;;21.10;99.90;;;;;;5052319;28;20836;-71
2023/06/20 02:55:27;;;;;;;6.70;5.20;;;21.10;99.90;;;;;;5052407;28;20404;-71
2023/06/20 02:57:56;;;;;;;5.83;5.03;;;21.10;99.90;;;;;;5052296;28;20449;-69
2023/06/20 03:00:23;;;;;;;4.43;3.60;;;21.00;99.90;;;;;;5052088;28;20406;-70
2023/06/20 03:03:20;;;;;;;7.70;3.87;;;21.00;99.90;;;;;;5051904;28;20420;-69
2023/06/20 03:05:47;;;;;;;5.83;4.10;;;21.00;99.90;;;;;;5050648;28;20414;-69
2023/06/20 03:08:14;;;;;;;4.47;3.80;;;21.00;99.90;;;;;;5052101;28;20770;-70
2023/06/20 03:10:41;;;;;;;6.40;4.70;;;21.00;99.90;;;;;;5051844;28;20408;-72
2023/06/20 03:13:07;;;;;;;4.90;4.40;;;20.90;99.90;;;;;;5052220;28;20405;-70
2023/06/20 03:15:32;;;;;;;4.13;3.73;;;20.90;99.90;;;;;;5052078;28;20406;-70
2023/06/20 03:18:01;;;;;;;4.70;4.10;;;20.70;99.90;;;;;;5051835;28;20222;-72
2023/06/20 03:20:29;;;;;;;4.40;4.00;;;20.70;99.90;;;;;;5051525;28;20198;-70
2023/06/20 03:22:55;;;;;;;4.90;3.50;;;20.60;99.90;;;;;;5051677;28;20413;-70
2023/06/20 03:25:21;;;;;;;4.53;4.03;;;20.60;99.90;;;;;;5051968;28;20410;-69
2023/06/20 03:27:47;;;;;;;5.00;3.93;;;20.50;99.90;;;;;;5051880;28;20892;-70
2023/06/20 03:30:14;;;;;;;5.00;4.20;;;20.40;99.90;;;;;;5051642;28;20175;-70
2023/06/20 03:32:40;;;;;;;7.00;3.50;;;20.40;99.90;;;;;;5051848;28;20605;-69
2023/06/20 03:35:06;;;;;;;4.17;3.77;;;20.40;99.90;;;;;;5051934;28;20983;-69
2023/06/20 03:37:32;;;;;;;5.03;4.63;;;20.50;99.90;;;;;;5033794;28;20468;-70
2023/06/20 03:39:57;;;;;;;4.77;4.30;;;20.50;99.90;;;;;;5051617;28;20488;-69
2023/06/20 03:42:23;;;;;;;5.23;4.67;;;20.50;99.90;;;;;;5033411;28;20190;-70
2023/06/20 03:44:48;;;;;;;4.53;4.10;;;20.50;99.90;;;;;;5051762;28;20159;-69
2023/06/20 03:47:14;;;;;;;5.60;3.80;;;20.50;99.90;;;;;;5051869;28;20170;-70
2023/06/20 03:49:39;;;;;;;5.23;4.23;;;20.50;99.90;;;;;;5053851;28;20163;-70
2023/06/20 03:52:05;;;;;;;4.40;4.00;;;20.50;99.90;;;;;;5055572;28;20212;-70
2023/06/20 03:54:31;;;;;;;5.27;4.20;;;20.50;99.90;;;;;;5055791;28;20680;-71
2023/06/20 03:56:56;;;;;;;4.93;3.40;;;20.50;99.90;;;;;;5055831;28;20186;-71
2023/06/20 03:59:22;;;;;;;5.33;4.07;;;20.50;99.90;;;;;;5055763;28;20206;-71
2023/06/20 04:01:47;;;;;;;6.80;4.17;;;20.60;99.90;;;;;;5055346;28;20232;-69
2023/06/20 04:04:14;;;;;;;5.27;4.73;;;20.60;99.90;;;;;;5055771;28;20182;-69
2023/06/20 04:06:39;;;;;;;5.50;4.30;;;20.60;99.90;;;;;;5055537;28;20155;-72
2023/06/20 04:09:05;;;;;;;8.17;5.77;;;20.70;99.90;;;;;;5037718;28;20981;-69
2023/06/20 04:11:30;;;;;;;5.00;4.50;;;20.70;99.90;;;;;;5055151;28;20487;-69
2023/06/20 04:13:56;;;;;;;3.90;3.43;;;20.70;99.90;;;;;;5055332;28;20171;-69
2023/06/20 04:16:22;;;;;;;4.03;3.63;;;20.70;99.90;;;;;;5055223;28;20352;-71
2023/06/20 04:18:47;;;;;;;5.80;3.53;;;20.80;99.90;;;;;;5055226;28;20256;-69
2023/06/20 04:21:13;;;;;;;4.20;3.80;;;20.80;99.90;;;;;;5054922;28;20183;-70
2023/06/20 04:23:38;;;;;;;3.73;3.43;;;20.80;99.90;;;;;;5037387;28;20614;-70
2023/06/20 04:26:04;;;;;;;4.17;3.77;;;20.80;99.90;;;;;;5055302;28;20159;-69
2023/06/20 04:28:29;;;;;;;4.43;4.03;;;20.70;99.90;;;;;;5055045;28;20174;-69
2023/06/20 04:30:55;;;;;;;3.33;3.03;;;20.80;99.90;;;;;;5054777;28;20206;-70
2023/06/20 04:33:22;;;;;;;5.40;3.80;;;20.90;99.90;;;;;;5055121;28;20167;-69
2023/06/20 04:35:47;;;;;;;5.27;3.90;;;21.00;99.90;;;;;;5055001;28;20310;-70
2023/06/20 04:38:13;;;;;;;5.67;3.57;;;21.00;99.90;;;;;;5054914;28;20990;-69
2023/06/20 04:40:39;;;;;;;4.13;3.67;;;21.10;99.90;;;;;;5054510;28;20159;-70
2023/06/20 04:43:04;;;;;;;4.10;3.70;;;21.10;99.90;;;;;;5055029;28;20171;-70
2023/06/20 04:45:30;;;;;;;4.73;4.33;;;21.20;99.90;;;;;;5054897;28;20167;-72
2023/06/20 04:47:56;;;;;;;4.13;3.53;;;21.30;99.90;;;;;;5054855;28;20197;-69
2023/06/20 04:50:22;;;;;;;4.60;4.13;;;21.30;99.90;;;;;;5054475;28;20409;-69
2023/06/20 04:52:48;;;;;;;5.07;3.97;;;21.30;99.90;;;;;;5054650;28;20498;-69
2023/06/20 04:55:14;;;;;;;3.37;3.07;;;21.30;99.90;;;;;;5054759;28;20178;-69
2023/06/20 04:57:39;;;;;;;4.30;4.00;;;21.40;99.90;;;;;;5054603;28;20481;-68
2023/06/20 05:00:12;;;;;;;4.17;3.70;;;21.50;99.90;;;;;;5053888;28;20221;-71
2023/06/20 05:02:42;;;;;;;3.60;3.30;;;21.40;99.90;;;;;;5054428;28;20191;-68
2023/06/20 05:05:08;;;;;;;4.20;3.80;;;21.50;99.90;;;;;;5054354;28;20484;-70
2023/06/20 05:07:34;;;;;;;4.57;3.60;;;21.50;99.90;;;;;;5054403;28;20402;-71
2023/06/20 05:09:59;;;;;;;7.00;4.20;;;21.50;99.90;;;;;;5054202;28;20821;-70
2023/06/20 05:12:25;;;;;;;3.97;3.67;;;21.50;99.90;;;;;;5054311;28;20190;-68
2023/06/20 05:14:50;;;;;;;5.97;4.27;;;21.60;99.90;;;;;;5054329;28;20197;-69
2023/06/20 05:17:16;;;;;;;6.83;5.03;;;21.50;99.90;;;;;;5054276;28;20536;-68
2023/06/20 05:19:41;;;;;;;5.70;4.80;;;21.60;99.90;;;;;;5054239;28;20657;-71
2023/06/20 05:22:07;;;;;;;5.13;3.80;;;21.60;99.90;;;;;;5053981;28;20187;-69
2023/06/20 05:24:32;;;;;;;4.13;3.17;;;21.60;99.90;;;;;;5054147;28;20311;-69
2023/06/20 05:26:58;;;;;;;4.27;3.80;;;21.80;99.90;;;;;;5054211;28;20201;-69
2023/06/20 05:29:23;;;;;;;4.30;3.90;;;22.00;99.90;;;;;;5036227;28;20177;-69
2023/06/20 05:31:49;;;;;;;6.43;3.60;;;22.10;99.90;;;;;;5053729;28;20588;-68
2023/06/20 05:34:14;;;;;;;3.73;3.40;;;22.20;99.90;;;;;;5053915;28;20167;-69
2023/06/20 05:36:40;;;;;;;4.73;4.30;;;22.40;99.90;;;;;;5053907;28;20163;-70
2023/06/20 05:39:08;;;;;;;4.20;3.80;;;22.70;99.90;;;;;;5053931;28;20237;-68
2023/06/20 05:41:34;;;;;;;7.13;4.53;;;22.90;99.90;;;;;;5053495;28;20244;-70
2023/06/20 05:44:00;;;;;;;8.00;4.87;;;23.00;99.90;;;;;;5054068;28;20402;-69
2023/06/20 05:46:25;;;;;;;5.70;5.10;;;23.10;99.90;;;;;;5053869;28;20163;-70
2023/06/20 05:48:51;;;;;;;5.80;4.60;;;23.00;99.90;;;;;;5053740;28;20167;-70
2023/06/20 05:51:16;;;;;;;6.63;4.50;;;23.00;99.90;;;;;;5053334;28;20661;-70
2023/06/20 05:53:42;;;;;;;6.20;5.07;;;23.20;99.90;;;;;;5053658;28;20178;-71
2023/06/20 05:56:09;;;;;;;6.27;5.03;;;23.40;99.90;;;;;;5035757;28;20167;-70
2023/06/20 05:58:34;;;;;;;5.80;5.20;;;23.70;99.90;;;;;;5053489;28;20205;-71
2023/06/20 06:01:01;;;;;;;6.00;5.40;;;24.10;99.90;;;;;;5053288;28;20798;-71
2023/06/20 06:03:27;;;;;;;6.77;4.80;;;24.20;99.90;;;;;;5053367;28;20594;-70
2023/06/20 06:05:52;;;;;;;8.20;5.50;;;24.40;99.90;;;;;;5053269;28;20400;-71
2023/06/20 06:08:19;;;;;;;5.73;4.53;;;24.60;99.90;;;;;;5053319;28;20167;-71
2023/06/20 06:10:45;;;;;;;6.40;5.80;;;24.50;99.90;;;;;;5052895;28;20186;-71
2023/06/20 06:13:10;;;;;;;4.93;3.87;;;24.20;99.90;;;;;;5052466;28;20444;-69
2023/06/20 06:15:36;;;;;;;7.73;5.30;;;24.40;99.90;;;;;;5053275;28;20182;-70
2023/06/20 06:18:03;;;;;;;4.80;4.30;;;24.60;99.90;;;;;;5053045;28;20191;-70
2023/06/20 06:20:29;;;;;;;5.00;4.50;;;24.70;99.90;;;;;;5052963;28;20163;-70
2023/06/20 06:22:55;;;;;;;5.90;5.30;;;25.10;99.90;;;;;;5053174;28;20483;-70
2023/06/20 06:25:21;;;;;;;7.77;5.23;;;25.20;99.90;;;;;;5053194;28;20242;-69
2023/06/20 06:27:46;;;;;;;5.00;4.50;;;25.50;99.90;;;;;;5035095;28;20420;-70
2023/06/20 06:30:14;;;;;;;6.47;5.60;;;26.10;99.90;;;;;;5052725;28;20179;-71
2023/06/20 06:32:41;;;;;;;5.07;4.63;;;27.00;99.90;;;;;;5052811;28;20186;-72
2023/06/20 06:35:08;;;;;;;4.43;4.00;;;27.50;99.90;;;;;;5052816;28;20470;-70
2023/06/20 06:37:34;;;;;;;5.30;4.53;;;28.20;99.90;;;;;;5052608;28;20994;-69
2023/06/20 06:40:00;;;;;;;5.93;4.67;;;29.30;99.90;;;;;;5052453;28;20405;-70
2023/06/20 06:42:26;;;;;;;5.10;4.10;;;30.00;99.90;;;;;;5052646;28;20440;-70
2023/06/20 06:44:52;;;;;;;5.97;5.37;;;31.00;99.90;;;;;;5052647;28;20398;-69
2023/06/20 06:47:17;;;;;;;7.00;5.43;;;31.50;99.90;;;;;;5052579;28;20661;-70
2023/06/20 06:49:43;;;;;;;4.40;4.00;;;31.80;99.90;;;;;;5052561;28;20160;-71
2023/06/20 06:52:09;;;;;;;4.70;4.20;;;32.20;99.10;;;;;;5052252;28;20278;-70
2023/06/20 06:54:35;;;;;;;5.10;4.60;;;32.10;97.60;;;;;;5034657;28;20221;-72
2023/06/20 06:57:00;;;;;;;5.10;4.70;;;32.80;93.90;;;;;;5052435;28;20393;-70
2023/06/20 06:59:26;;;;;;;6.00;4.43;;;33.10;90.40;;;;;;5052426;28;20199;-70
2023/06/20 07:01:52;;;;;;;3.67;3.37;;;33.60;89.20;;;;;;5051975;28;20186;-70
2023/06/20 07:04:17;;;;;;;4.93;4.53;;;33.90;84.00;;;;;;5052195;28;20236;-69
2023/06/20 07:06:43;;;;;;;7.40;4.00;;;33.50;79.70;;;;;;5052310;28;20155;-69
2023/06/20 07:09:09;;;;;;;5.27;4.87;;;33.60;78.60;;;;;;5052251;28;20177;-70
2023/06/20 07:11:35;;;;;;;8.43;5.00;;;34.10;78.50;;;;;;5051856;28;20790;-71
2023/06/20 07:14:00;;;;;;;4.37;4.00;;;34.00;74.00;;;;;;5052281;28;20206;-70
2023/06/20 07:16:26;;;;;;;4.60;4.20;;;34.30;74.80;;;;;;5052115;28;20514;-70
2023/06/20 07:18:52;;;;;;;5.43;4.93;;;35.10;72.10;;;;;;5034178;28;20195;-69
2023/06/20 07:21:17;;;;;;;5.20;4.20;;;35.10;67.60;;;;;;5051443;28;20197;-70
2023/06/20 07:23:43;;;;;;;4.93;4.43;;;34.90;67.70;;;;;;5051429;28;20649;-72
2023/06/20 07:26:09;;;;;;;4.40;4.00;;;35.70;65.00;;;;;;5052139;28;20167;-72
2023/06/20 07:28:36;;;;;;;4.10;3.60;;;35.40;63.90;;;;;;5051902;28;20250;-71
2023/06/20 07:31:01;;;;;;;5.60;5.10;;;35.70;60.30;;;;;;5051537;28;20187;-71
2023/06/20 07:33:27;;;;;;;4.90;4.50;;;35.60;58.50;;;;;;5051918;28;20755;-70
2023/06/20 07:35:53;;;;;;;4.27;3.50;;;35.80;58.40;;;;;;5051923;28;20885;-70
2023/06/20 07:38:19;;;;;;;4.10;3.80;;;36.10;59.40;;;;;;5051852;28;20214;-71
2023/06/20 07:40:45;;;;;;;5.33;4.23;;;35.80;57.70;;;;;;5051499;28;21165;-73
2023/06/20 07:43:10;;;;;;;3.70;3.40;;;35.80;56.40;;;;;;5051837;28;20240;-73
2023/06/20 07:45:36;;;;;;;4.43;4.10;;;36.00;55.70;;;;;;5051805;28;20241;-71
2023/06/20 07:48:03;;;;;;;4.93;4.53;;;36.60;56.00;;;;;;5051744;28;20197;-71
2023/06/20 07:50:29;;;;;;;5.00;4.50;;;37.30;54.30;;;;;;5051433;28;20775;-73
2023/06/20 07:52:54;;;;;;;4.80;4.40;;;37.70;53.60;;;;;;5051604;28;20425;-72
2023/06/20 07:55:20;;;;;;;5.27;4.80;;;38.70;51.20;;;;;;5051698;28;20629;-73
2023/06/20 07:57:45;;;;;;;4.80;4.37;;;39.10;49.20;;;;;;5051570;28;20256;-73
2023/06/20 08:00:11;;;;;;;4.47;4.07;;;39.50;48.20;;;;;;5051433;28;20175;-72
2023/06/20 08:02:37;;;;;;;3.37;3.17;;;39.80;47.40;;;;;;5051390;28;20217;-72
2023/06/20 08:05:04;;;;;;;4.40;4.00;;;40.10;46.60;;;;;;5051622;28;20409;-71
2023/06/20 08:07:30;;;;;;;4.20;3.90;;;41.00;45.30;;;;;;5051651;28;20379;-73
2023/06/20 08:09:56;;;;;;;4.60;4.20;;;41.70;43.40;;;;;;5068661;28;20925;-71
2023/06/20 08:12:22;;;;;;;5.13;3.73;;;41.70;43.20;;;;;;5071451;28;20603;-71
2023/06/20 08:14:50;;;;;;;4.07;3.73;;;41.20;41.10;;;;;;5071210;28;20198;-73
2023/06/20 08:17:16;;;;;;;4.10;3.80;;;41.00;42.20;;;;;;5053401;28;20375;-74
2023/06/20 08:19:41;;;;;;;4.10;3.73;;;41.50;41.90;;;;;;5071126;28;20410;-73
2023/06/20 08:22:07;;;;;;;6.90;4.27;;;42.50;41.90;;;;;;5071099;28;20190;-74
2023/06/20 08:24:32;;;;;;;5.13;4.63;;;42.80;39.20;;;;;;5071171;28;20178;-73
2023/06/20 08:26:58;;;;;;;4.63;4.23;;;43.20;38.40;;;;;;5071432;28;20166;-72
2023/06/20 08:29:23;;;;;;;4.50;4.10;;;43.70;38.10;;;;;;5071102;28;20224;-73
2023/06/20 08:31:49;;;;;;;4.00;3.70;;;44.40;37.90;;;;;;5071022;28;20190;-72
2023/06/20 08:34:14;;;;;;;4.90;4.60;;;44.10;36.40;;;;;;5071159;28;20795;-71
2023/06/20 08:36:40;;;;;;;4.80;4.40;;;43.10;35.40;;;;;;5050613;28;20649;-74
2023/06/20 08:39:05;;;;;;;4.87;4.47;;;43.70;35.80;;;;;;5045076;28;20209;-74
2023/06/20 08:41:31;;;;;;;4.93;3.47;;;43.90;35.30;;;;;;5054528;28;20191;-72
2023/06/20 08:43:57;;;;;;;4.23;3.93;;;44.90;34.80;;;;;;5054854;28;20537;-75
2023/06/20 08:46:24;;;;;;;4.40;4.10;;;43.20;33.60;;;;;;5037082;28;20185;-73
2023/06/20 08:48:50;;;;;;;4.50;4.20;;;42.00;35.80;;;;;;5054473;28;20987;-72
2023/06/20 08:51:16;;;;;;;4.20;3.90;;;41.20;35.90;;;;;;5054469;28;20428;-72
2023/06/20 08:53:48;;;;;;;4.20;3.80;;;41.30;37.00;;;;;;5054731;28;20372;-73
2023/06/20 08:56:18;;;;;;;4.40;4.00;;;41.20;38.20;;;;;;5054665;28;20386;-72
2023/06/20 08:58:44;;;;;;;4.50;4.10;;;41.90;36.90;;;;;;5054586;28;20431;-71
2023/06/20 09:01:09;;;;;;;3.63;3.40;;;42.20;35.40;;;;;;5036625;28;20416;-74
2023/06/20 09:03:35;;;;;;;4.20;3.90;;;43.20;35.40;;;;;;5054566;28;20186;-74
2023/06/20 09:06:02;;;;;;;4.27;3.97;;;43.70;34.50;;;;;;5054508;28;20618;-74
2023/06/20 09:08:39;;;;;;;4.57;4.20;;;43.90;33.30;;;;;;5054331;28;20524;-73
2023/06/20 09:11:05;;;;;;;3.83;3.63;;;44.30;33.80;;;;;;5054079;28;20461;-72
2023/06/20 09:13:31;;;;;;;3.87;3.57;;;43.80;33.30;;;;;;5054468;28;20773;-73
2023/06/20 09:16:10;;;;;;;3.90;3.60;;;44.30;33.90;;;;;;5054265;28;20435;-72
2023/06/20 09:18:37;;;;;;;4.00;3.70;;;44.70;32.60;;;;;;5054249;28;20190;-73
2023/06/20 09:21:03;;;;;;;4.50;4.10;;;45.10;32.90;;;;;;5053817;28;20427;-72
2023/06/20 09:23:33;;;;;;;5.83;4.43;;;45.90;32.60;;;;;;5054276;28;20399;-72
2023/06/20 09:26:16;;;;;;;4.17;3.87;;;46.90;31.70;;;;;;5054222;28;20228;-73
2023/06/20 09:28:42;;;;;;;4.77;4.47;;;45.40;30.60;;;;;;5054216;28;20454;-74
2023/06/20 09:31:08;;;;;;;4.87;4.27;;;45.00;32.40;;;;;;5053684;28;20415;-74
2023/06/20 09:33:39;;;;;;;4.90;4.60;;;45.10;32.80;;;;;;5054081;28;20380;-71
2023/06/20 09:36:15;;;;;;;4.60;4.30;;;45.40;32.00;;;;;;5053799;28;20590;-74
2023/06/20 09:38:50;;;;;;;4.50;4.20;;;45.60;31.50;;;;;;5054181;28;20460;-72
2023/06/20 09:41:16;;;;;;;4.70;4.40;;;45.20;30.50;;;;;;5053640;28;20453;-74
2023/06/20 09:43:42;;;;;;;3.80;3.50;;;45.20;30.30;;;;;;5053885;28;20401;-75
2023/06/20 09:46:08;;;;;;;3.70;3.50;;;43.50;29.90;;;;;;5052933;28;20380;-74
2023/06/20 09:48:35;;;;;;;7.60;3.83;;;43.60;31.60;;;;;;5053322;28;20933;-73
2023/06/20 09:51:01;;;;;;;4.03;3.77;;;44.60;32.30;;;;;;5053491;28;20187;-71
2023/06/20 09:53:33;;;;;;;3.90;3.60;;;45.50;31.00;;;;;;5035573;28;20388;-71
2023/06/20 09:56:00;;;;;;;3.67;3.47;;;46.30;29.90;;;;;;5053747;28;20491;-74
2023/06/20 09:58:29;;;;;;;3.17;2.97;;;47.00;29.40;;;;;;5053465;28;20544;-74
2023/06/20 10:00:56;;;;;;;3.47;3.27;;;47.80;28.70;;;;;;5052820;28;20399;-75
2023/06/20 10:03:22;;;;;;;3.13;2.93;;;48.00;27.90;;;;;;5053405;28;21147;-75
2023/06/20 10:05:48;;;;;;;3.57;3.37;;;48.70;28.20;;;;;;5053424;28;20451;-74
2023/06/20 10:08:16;;;;;;;3.90;3.70;;;49.70;27.40;;;;;;5053511;28;20456;-74
2023/06/20 10:10:41;;;;;;;3.80;3.50;;;50.00;27.00;;;;;;5053113;28;20684;-75
2023/06/20 10:13:08;;;;;;;4.13;3.93;;;51.10;26.60;;;;;;5053355;28;20388;-74
2023/06/20 10:15:34;;;;;;;4.53;4.23;;;51.70;26.80;;;;;;5053250;28;20167;-74
2023/06/20 10:17:59;;;;;;;3.87;3.60;;;51.40;25.60;;;;;;5037059;28;20992;-75
2023/06/20 10:20:26;;;;;;;4.13;3.77;;;51.80;25.90;;;;;;5052900;28;20444;-74
2023/06/20 10:23:00;;;;;;;3.80;3.60;;;52.30;25.80;;;;;;5053126;28;20187;-73
2023/06/20 10:25:27;;;;;;;4.83;4.53;;;52.70;24.80;;;;;;5053079;28;20409;-74
2023/06/20 10:27:52;;;;;;;4.13;3.83;;;51.90;24.90;;;;;;5052990;28;20408;-73
2023/06/20 10:30:50;;;;;;;3.50;3.30;;;51.30;25.10;;;;;;5034686;28;20403;-68
2023/06/20 10:33:21;;;;;;;4.77;4.47;;;52.40;25.80;;;;;;5052783;28;20258;-68
2023/06/20 10:36:08;;;;;;;3.97;3.67;;;51.50;24.60;;;;;;5052717;28;20414;-68
2023/06/20 10:38:38;;;;;;;4.40;4.10;;;51.00;24.30;;;;;;5052687;28;20440;-68
2023/06/20 10:41:20;;;;;;;3.17;2.97;;;48.80;25.50;;;;;;5052571;28;20433;-68
2023/06/20 10:43:53;;;;;;;3.70;3.50;;;48.50;26.20;;;;;;5052702;28;20380;-68
2023/06/20 10:46:22;;;;;;;4.63;4.33;;;49.10;25.80;;;;;;5052595;28;20400;-68
2023/06/20 10:48:47;;;;;;;3.70;3.50;;;48.80;26.30;;;;;;5052642;28;20429;-68
2023/06/20 10:51:13;;;;;;;4.00;3.80;;;49.00;26.20;;;;;;5052166;28;20773;-68
2023/06/20 10:53:39;;;;;;;4.03;3.73;;;49.10;25.90;;;;;;5052483;28;20193;-66
2023/06/20 10:56:04;;;;;;;3.80;3.50;;;47.60;26.30;;;;;;5052164;28;20208;-68
2023/06/20 10:58:30;;;;;;;4.00;3.70;;;47.20;26.80;;;;;;5051941;28;20206;-68
2023/06/20 11:00:55;;;;;;;3.40;3.20;;;48.60;27.10;;;;;;5052071;28;20183;-69
2023/06/20 11:03:23;;;;;;;3.10;2.90;;;49.90;26.60;;;;;;5052244;28;20555;-68
2023/06/20 11:05:54;;;;;;;3.23;3.03;;;51.10;26.10;;;;;;5052441;28;20167;-68
2023/06/20 11:08:26;;;;;;;3.47;3.27;;;51.70;25.00;;;;;;5052353;28;20380;-68
2023/06/20 11:10:53;;;;;;;4.00;3.80;;;52.30;24.30;;;;;;5051951;28;20507;-68
2023/06/20 11:13:19;;;;;;;4.33;4.03;;;52.70;24.20;;;;;;5051963;28;20405;-68
2023/06/20 11:15:44;;;;;;;4.20;3.90;;;52.80;24.00;;;;;;5052212;28;20380;-68
2023/06/20 11:18:10;;;;;;;3.53;3.33;;;52.80;23.70;;;;;;5052032;28;20668;-67
2023/06/20 11:20:39;;;;;;;3.23;3.03;;;51.80;22.80;;;;;;5051861;28;20692;-68
2023/06/20 11:23:10;;;;;;;3.50;3.30;;;52.10;23.70;;;;;;5052037;28;20170;-67
2023/06/20 11:25:37;;;;;;;3.30;3.10;;;51.80;23.00;;;;;;5052138;28;20401;-68
2023/06/20 11:28:07;;;;;;;3.43;3.13;;;52.40;23.20;;;;;;5051945;28;20413;-68
2023/06/20 11:30:34;;;;;;;3.03;2.93;;;53.10;24.20;;;;;;5051581;28;20408;-68
2023/06/20 11:33:00;;;;;;;3.83;3.60;;;52.30;23.20;;;;;;5051971;28;20760;-67
2023/06/20 11:35:52;;;;;;;3.30;3.10;;;52.20;23.20;;;;;;5051485;28;20966;-68
2023/06/20 11:38:28;;;;;;;3.47;3.27;;;52.50;23.50;;;;;;5033880;28;20454;-68
2023/06/20 11:41:07;;;;;;;3.20;3.00;;;52.60;23.20;;;;;;5051471;28;20417;-68
2023/06/20 11:43:37;;;;;;;3.90;3.60;;;53.30;23.20;;;;;;5051585;28;20895;-68
2023/06/20 11:46:03;;;;;;;4.00;3.70;;;51.70;22.70;;;;;;5051573;28;20404;-68
2023/06/20 11:48:29;;;;;;;3.60;3.40;;;51.50;23.20;;;;;;5051731;28;20891;-67
2023/06/20 11:51:03;;;;;;;4.60;4.30;;;50.70;23.10;;;;;;5051384;28;20214;-68
2023/06/20 11:53:34;;;;;;;3.33;3.03;;;49.30;24.00;;;;;;5051677;28;20484;-68
2023/06/20 11:56:06;;;;;;;3.50;3.30;;;48.80;24.90;;;;;;5051654;28;20748;-68
2023/06/20 11:58:52;;;;;;;3.27;3.07;;;49.50;24.50;;;;;;5051457;28;20404;-68
2023/06/20 12:01:20;;;;;;;2.93;2.73;;;51.00;23.90;;;;;;5051226;28;20396;-68
2023/06/20 12:04:02;;;;;;;3.40;3.20;;;51.30;23.40;;;;;;5051494;28;20394;-68
2023/06/20 12:06:36;;;;;;;2.87;2.67;;;51.00;22.60;;;;;;5051530;28;20402;-68
2023/06/20 12:09:18;;;;;;;2.80;2.67;;;51.40;23.30;;;;;;5051638;28;20376;-68
2023/06/20 12:11:48;;;;;;;3.13;2.93;;;52.30;23.50;;;;;;5054925;28;20435;-68
2023/06/20 12:14:15;;;;;;;3.03;2.83;;;52.60;23.10;;;;;;5055477;28;20413;-68
2023/06/20 12:16:40;;;;;;;3.43;3.23;;;53.60;22.60;;;;;;5055478;28;20491;-68
2023/06/20 12:19:06;;;;;;;3.23;3.03;;;52.90;21.90;;;;;;5055450;28;20547;-68
2023/06/20 12:21:32;;;;;;;3.27;3.07;;;52.40;22.20;;;;;;5054996;28;20240;-68
2023/06/20 12:23:57;;;;;;;3.53;3.33;;;52.80;22.50;;;;;;5055431;28;20165;-68
2023/06/20 12:26:23;;;;;;;3.30;3.10;;;52.30;22.20;;;;;;5055402;28;20238;-68
2023/06/20 12:28:49;;;;;;;3.30;3.10;;;51.80;22.50;;;;;;5055289;28;20251;-68
2023/06/20 12:31:15;;;;;;;10.50;9.60;;;51.90;22.20;;;;;;5054803;28;20532;-68
2023/06/20 12:33:40;;;;;;;3.13;2.93;;;51.80;22.10;;;;;;5055226;28;20167;-68
2023/06/20 12:36:08;;;;;;;3.07;2.87;;;51.80;22.50;;;;;;5055015;28;20163;-68
2023/06/20 12:38:34;;;;;;;3.40;3.20;;;51.00;22.80;;;;;;5055173;28;20240;-68
2023/06/20 12:41:00;;;;;;;3.17;2.97;;;51.00;22.60;;;;;;5054767;28;20425;-68
2023/06/20 12:43:26;;;;;;;4.30;3.23;;;51.40;22.70;;;;;;5054918;28;20167;-68
2023/06/20 12:45:52;;;;;;;3.27;3.07;;;51.30;22.50;;;;;;5055007;28;20383;-68
2023/06/20 12:48:18;;;;;;;3.80;3.50;;;50.80;22.90;;;;;;5054916;28;20163;-67
2023/06/20 12:50:44;;;;;;;3.40;3.20;;;50.50;22.90;;;;;;5054569;28;20401;-68